sensor_id;sensor_type;location;lat;lon;timestamp;P1;durP1;ratioP1;P2;durP2;ratioP2
68509;SDS011;55512;50.102;19.958;2023-08-17T06:44:19;17.00;;;9.50;;
68509;SDS011;55512;50.102;19.958;2023-08-17T06:46:45;18.00;;;11.10;;
68509;SDS011;55512;50.102;19.958;2023-08-17T06:49:11;17.70;;;10.10;;
68509;SDS011;55512;50.102;19.958;2023-08-17T06:51:38;13.60;;;9.70;;
68509;SDS011;55512;50.102;19.958;2023-08-17T06:54:05;17.80;;;9.40;;
68509;SDS011;55512;50.102;19.958;2023-08-17T06:56:32;13.60;;;9.80;;
68509;SDS011;55512;50.102;19.958;2023-08-17T06:58:58;36.30;;;12.50;;
68509;SDS011;55512;50.102;19.958;2023-08-17T07:01:23;13.80;;;9.50;;
68509;SDS011;55512;50.102;19.958;2023-08-17T07:03:49;13.00;;;9.10;;
68509;SDS011;55512;50.102;19.958;2023-08-17T07:06:14;25.10;;;11.50;;
68509;SDS011;55512;50.102;19.958;2023-08-17T07:08:40;28.70;;;11.40;;
68509;SDS011;55512;50.102;19.958;2023-08-17T07:11:05;14.40;;;9.50;;
68509;SDS011;55512;50.102;19.958;2023-08-17T07:13:31;12.50;;;9.80;;
68509;SDS011;55512;50.102;19.958;2023-08-17T07:15:57;25.10;;;11.00;;
68509;SDS011;55512;50.102;19.958;2023-08-17T07:18:23;14.20;;;9.10;;
68509;SDS011;55512;50.102;19.958;2023-08-17T07:20:48;14.80;;;9.20;;
68509;SDS011;55512;50.102;19.958;2023-08-17T07:23:15;12.40;;;8.40;;
68509;SDS011;55512;50.102;19.958;2023-08-17T07:25:40;20.00;;;9.30;;
68509;SDS011;55512;50.102;19.958;2023-08-17T07:28:06;17.00;;;11.00;;
68509;SDS011;55512;50.102;19.958;2023-08-17T07:30:31;14.80;;;10.10;;
68509;SDS011;55512;50.102;19.958;2023-08-17T07:32:57;18.10;;;10.30;;
68509;SDS011;55512;50.102;19.958;2023-08-17T07:35:22;23.20;;;10.40;;
68509;SDS011;55512;50.102;19.958;2023-08-17T07:37:48;16.10;;;9.40;;
68509;SDS011;55512;50.102;19.958;2023-08-17T07:40:13;15.50;;;9.30;;
68509;SDS011;55512;50.102;19.958;2023-08-17T07:42:39;14.70;;;8.50;;
68509;SDS011;55512;50.102;19.958;2023-08-17T07:45:05;19.70;;;9.50;;
68509;SDS011;55512;50.102;19.958;2023-08-17T07:47:34;12.60;;;8.30;;
68509;SDS011;55512;50.102;19.958;2023-08-17T07:50:07;20.90;;;8.80;;
68509;SDS011;55512;50.102;19.958;2023-08-17T07:52:34;14.50;;;8.90;;
68509;SDS011;55512;50.102;19.958;2023-08-17T07:54:59;13.90;;;9.50;;
68509;SDS011;55512;50.102;19.958;2023-08-17T07:57:25;14.80;;;9.00;;
68509;SDS011;55512;50.102;19.958;2023-08-17T07:59:50;15.60;;;9.10;;
68509;SDS011;55512;50.102;19.958;2023-08-17T08:02:16;15.10;;;9.40;;
68509;SDS011;55512;50.102;19.958;2023-08-17T08:04:42;14.60;;;8.40;;
68509;SDS011;55512;50.102;19.958;2023-08-17T08:07:08;19.30;;;8.80;;
68509;SDS011;55512;50.102;19.958;2023-08-17T08:09:34;64.80;;;15.80;;
68509;SDS011;55512;50.102;19.958;2023-08-17T08:12:00;17.00;;;7.90;;
68509;SDS011;55512;50.102;19.958;2023-08-17T08:14:25;12.50;;;7.60;;
68509;SDS011;55512;50.102;19.958;2023-08-17T08:16:54;11.90;;;8.20;;
68509;SDS011;55512;50.102;19.958;2023-08-17T08:19:19;14.00;;;8.60;;
68509;SDS011;55512;50.102;19.958;2023-08-17T08:21:45;11.20;;;8.60;;
68509;SDS011;55512;50.102;19.958;2023-08-17T08:24:10;14.10;;;9.30;;
68509;SDS011;55512;50.102;19.958;2023-08-17T08:26:36;12.70;;;9.00;;
68509;SDS011;55512;50.102;19.958;2023-08-17T08:29:01;14.00;;;8.80;;
68509;SDS011;55512;50.102;19.958;2023-08-17T08:31:26;12.50;;;8.60;;
68509;SDS011;55512;50.102;19.958;2023-08-17T08:33:52;12.30;;;8.50;;
68509;SDS011;55512;50.102;19.958;2023-08-17T08:36:18;11.50;;;7.90;;
68509;SDS011;55512;50.102;19.958;2023-08-17T08:38:44;11.70;;;8.20;;
68509;SDS011;55512;50.102;19.958;2023-08-17T08:41:11;32.60;;;11.40;;
68509;SDS011;55512;50.102;19.958;2023-08-17T08:43:38;21.20;;;9.40;;
68509;SDS011;55512;50.102;19.958;2023-08-17T08:46:04;18.00;;;9.80;;
68509;SDS011;55512;50.102;19.958;2023-08-17T08:48:31;12.50;;;8.50;;
68509;SDS011;55512;50.102;19.958;2023-08-17T08:51:00;13.60;;;8.90;;
68509;SDS011;55512;50.102;19.958;2023-08-17T08:53:37;22.30;;;9.10;;
68509;SDS011;55512;50.102;19.958;2023-08-17T08:56:07;21.70;;;9.00;;
68509;SDS011;55512;50.102;19.958;2023-08-17T08:58:38;15.70;;;8.70;;
68509;SDS011;55512;50.102;19.958;2023-08-17T09:01:06;17.50;;;8.10;;
68509;SDS011;55512;50.102;19.958;2023-08-17T09:03:33;16.80;;;8.80;;
68509;SDS011;55512;50.102;19.958;2023-08-17T09:05:59;14.10;;;8.50;;
68509;SDS011;55512;50.102;19.958;2023-08-17T09:08:27;32.40;;;10.70;;
68509;SDS011;55512;50.102;19.958;2023-08-17T09:10:54;24.70;;;9.80;;
68509;SDS011;55512;50.102;19.958;2023-08-17T09:13:20;16.90;;;9.20;;
68509;SDS011;55512;50.102;19.958;2023-08-17T09:15:46;17.30;;;8.90;;
68509;SDS011;55512;50.102;19.958;2023-08-17T09:18:11;19.30;;;9.40;;
68509;SDS011;55512;50.102;19.958;2023-08-17T09:23:15;22.40;;;8.80;;
68509;SDS011;55512;50.102;19.958;2023-08-17T09:25:43;14.40;;;8.20;;
68509;SDS011;55512;50.102;19.958;2023-08-17T09:28:11;18.70;;;8.90;;
68509;SDS011;55512;50.102;19.958;2023-08-17T09:31:02;16.20;;;7.90;;
68509;SDS011;55512;50.102;19.958;2023-08-17T09:33:30;18.80;;;8.30;;
68509;SDS011;55512;50.102;19.958;2023-08-17T09:35:58;16.30;;;8.20;;
68509;SDS011;55512;50.102;19.958;2023-08-17T09:38:26;11.40;;;8.30;;
68509;SDS011;55512;50.102;19.958;2023-08-17T09:40:52;20.40;;;9.40;;
68509;SDS011;55512;50.102;19.958;2023-08-17T09:43:19;14.70;;;8.90;;
68509;SDS011;55512;50.102;19.958;2023-08-17T09:45:48;17.90;;;8.50;;
68509;SDS011;55512;50.102;19.958;2023-08-17T09:48:18;14.20;;;7.30;;
68509;SDS011;55512;50.102;19.958;2023-08-17T09:50:47;13.80;;;7.20;;
68509;SDS011;55512;50.102;19.958;2023-08-17T09:53:16;11.60;;;6.90;;
68509;SDS011;55512;50.102;19.958;2023-08-17T09:55:44;12.10;;;7.60;;
68509;SDS011;55512;50.102;19.958;2023-08-17T09:58:11;9.80;;;6.90;;
68509;SDS011;55512;50.102;19.958;2023-08-17T10:00:44;9.60;;;6.60;;
68509;SDS011;55512;50.102;19.958;2023-08-17T10:03:13;11.40;;;6.20;;
68509;SDS011;55512;50.102;19.958;2023-08-17T10:05:40;10.00;;;5.80;;
68509;SDS011;55512;50.102;19.958;2023-08-17T10:08:10;9.90;;;5.70;;
68509;SDS011;55512;50.102;19.958;2023-08-17T10:10:44;9.00;;;6.80;;
68509;SDS011;55512;50.102;19.958;2023-08-17T10:13:39;14.10;;;7.60;;
68509;SDS011;55512;50.102;19.958;2023-08-17T10:16:23;17.00;;;8.00;;
68509;SDS011;55512;50.102;19.958;2023-08-17T10:19:07;10.10;;;6.10;;
68509;SDS011;55512;50.102;19.958;2023-08-17T10:21:50;12.10;;;8.00;;
68509;SDS011;55512;50.102;19.958;2023-08-17T10:24:26;11.90;;;6.70;;
68509;SDS011;55512;50.102;19.958;2023-08-17T10:26:52;12.90;;;6.80;;
68509;SDS011;55512;50.102;19.958;2023-08-17T10:29:19;11.30;;;6.90;;
68509;SDS011;55512;50.102;19.958;2023-08-17T10:31:48;10.70;;;5.70;;
68509;SDS011;55512;50.102;19.958;2023-08-17T10:34:14;7.70;;;4.90;;
68509;SDS011;55512;50.102;19.958;2023-08-17T10:36:41;13.30;;;4.80;;
68509;SDS011;55512;50.102;19.958;2023-08-17T10:39:27;10.40;;;4.50;;
68509;SDS011;55512;50.102;19.958;2023-08-17T10:41:55;10.70;;;5.30;;
68509;SDS011;55512;50.102;19.958;2023-08-17T10:47:43;13.80;;;5.40;;
68509;SDS011;55512;50.102;19.958;2023-08-17T10:50:22;13.80;;;5.40;;
68509;SDS011;55512;50.102;19.958;2023-08-17T10:52:50;9.90;;;5.40;;
68509;SDS011;55512;50.102;19.958;2023-08-17T10:55:56;13.00;;;5.60;;
68509;SDS011;55512;50.102;19.958;2023-08-17T10:58:22;14.20;;;5.90;;
68509;SDS011;55512;50.102;19.958;2023-08-17T11:00:54;14.20;;;5.80;;
68509;SDS011;55512;50.102;19.958;2023-08-17T11:03:22;15.60;;;5.20;;
68509;SDS011;55512;50.102;19.958;2023-08-17T11:05:50;13.00;;;5.70;;
68509;SDS011;55512;50.102;19.958;2023-08-17T11:08:39;22.40;;;6.40;;
68509;SDS011;55512;50.102;19.958;2023-08-17T11:11:15;10.10;;;4.80;;
68509;SDS011;55512;50.102;19.958;2023-08-17T11:13:42;14.00;;;5.60;;
68509;SDS011;55512;50.102;19.958;2023-08-17T11:16:10;13.70;;;5.60;;
68509;SDS011;55512;50.102;19.958;2023-08-17T11:18:37;53.40;;;10.30;;
68509;SDS011;55512;50.102;19.958;2023-08-17T11:21:05;27.00;;;7.90;;
68509;SDS011;55512;50.102;19.958;2023-08-17T11:23:33;18.30;;;6.80;;
68509;SDS011;55512;50.102;19.958;2023-08-17T11:26:00;15.10;;;6.40;;
68509;SDS011;55512;50.102;19.958;2023-08-17T11:28:26;11.20;;;5.80;;
68509;SDS011;55512;50.102;19.958;2023-08-17T11:31:00;11.20;;;5.40;;
68509;SDS011;55512;50.102;19.958;2023-08-17T11:33:28;10.80;;;5.30;;
68509;SDS011;55512;50.102;19.958;2023-08-17T11:35:55;15.70;;;6.50;;
68509;SDS011;55512;50.102;19.958;2023-08-17T11:38:21;24.20;;;7.80;;
68509;SDS011;55512;50.102;19.958;2023-08-17T11:40:47;15.00;;;6.80;;
68509;SDS011;55512;50.102;19.958;2023-08-17T11:43:14;13.90;;;6.20;;
68509;SDS011;55512;50.102;19.958;2023-08-17T11:45:40;105.30;;;17.20;;
68509;SDS011;55512;50.102;19.958;2023-08-17T11:48:06;31.40;;;9.30;;
68509;SDS011;55512;50.102;19.958;2023-08-17T11:50:32;21.90;;;6.90;;
68509;SDS011;55512;50.102;19.958;2023-08-17T11:53:01;15.70;;;7.20;;
68509;SDS011;55512;50.102;19.958;2023-08-17T11:55:27;16.10;;;6.30;;
68509;SDS011;55512;50.102;19.958;2023-08-17T11:57:52;12.90;;;6.50;;
68509;SDS011;55512;50.102;19.958;2023-08-17T12:00:20;11.90;;;6.10;;
68509;SDS011;55512;50.102;19.958;2023-08-17T12:02:48;30.50;;;8.50;;
68509;SDS011;55512;50.102;19.958;2023-08-17T12:05:19;23.90;;;7.20;;
68509;SDS011;55512;50.102;19.958;2023-08-17T12:07:46;12.00;;;6.30;;
68509;SDS011;55512;50.102;19.958;2023-08-17T12:10:11;10.50;;;5.60;;
68509;SDS011;55512;50.102;19.958;2023-08-17T12:12:37;14.10;;;5.90;;
68509;SDS011;55512;50.102;19.958;2023-08-17T12:15:06;24.20;;;6.20;;
68509;SDS011;55512;50.102;19.958;2023-08-17T12:17:31;31.60;;;9.50;;
68509;SDS011;55512;50.102;19.958;2023-08-17T12:19:58;16.00;;;5.60;;
68509;SDS011;55512;50.102;19.958;2023-08-17T12:22:25;9.90;;;5.60;;
68509;SDS011;55512;50.102;19.958;2023-08-17T12:24:51;15.20;;;4.80;;
68509;SDS011;55512;50.102;19.958;2023-08-17T12:27:17;12.90;;;5.20;;
68509;SDS011;55512;50.102;19.958;2023-08-17T12:29:50;9.60;;;4.40;;
68509;SDS011;55512;50.102;19.958;2023-08-17T12:32:18;10.10;;;4.60;;
68509;SDS011;55512;50.102;19.958;2023-08-17T12:34:45;6.80;;;3.50;;
68509;SDS011;55512;50.102;19.958;2023-08-17T12:37:12;8.30;;;3.80;;
68509;SDS011;55512;50.102;19.958;2023-08-17T12:39:43;8.40;;;3.30;;
68509;SDS011;55512;50.102;19.958;2023-08-17T12:42:08;11.30;;;3.90;;
68509;SDS011;55512;50.102;19.958;2023-08-17T12:44:34;8.80;;;3.50;;
68509;SDS011;55512;50.102;19.958;2023-08-17T12:46:59;9.80;;;3.50;;
68509;SDS011;55512;50.102;19.958;2023-08-17T12:49:24;5.70;;;3.30;;
68509;SDS011;55512;50.102;19.958;2023-08-17T12:51:51;6.70;;;3.40;;
68509;SDS011;55512;50.102;19.958;2023-08-17T12:54:17;6.30;;;3.20;;
68509;SDS011;55512;50.102;19.958;2023-08-17T12:56:43;7.50;;;3.40;;
68509;SDS011;55512;50.102;19.958;2023-08-17T12:59:09;8.10;;;2.80;;
68509;SDS011;55512;50.102;19.958;2023-08-17T13:01:35;8.00;;;3.50;;
68509;SDS011;55512;50.102;19.958;2023-08-17T13:04:00;6.50;;;3.50;;
68509;SDS011;55512;50.102;19.958;2023-08-17T13:06:26;5.30;;;3.00;;
68509;SDS011;55512;50.102;19.958;2023-08-17T13:08:51;7.60;;;3.20;;
68509;SDS011;55512;50.102;19.958;2023-08-17T13:11:17;6.90;;;2.70;;
68509;SDS011;55512;50.102;19.958;2023-08-17T13:13:42;5.90;;;2.70;;
68509;SDS011;55512;50.102;19.958;2023-08-17T13:16:08;8.20;;;3.50;;
68509;SDS011;55512;50.102;19.958;2023-08-17T13:18:34;8.60;;;3.20;;
68509;SDS011;55512;50.102;19.958;2023-08-17T13:20:59;8.70;;;3.20;;
68509;SDS011;55512;50.102;19.958;2023-08-17T13:23:25;7.60;;;2.90;;
68509;SDS011;55512;50.102;19.958;2023-08-17T13:25:50;5.80;;;2.60;;
68509;SDS011;55512;50.102;19.958;2023-08-17T13:28:16;6.80;;;2.70;;
68509;SDS011;55512;50.102;19.958;2023-08-17T13:30:41;14.40;;;3.70;;
68509;SDS011;55512;50.102;19.958;2023-08-17T13:33:07;13.80;;;3.60;;
68509;SDS011;55512;50.102;19.958;2023-08-17T13:35:33;6.10;;;2.70;;
68509;SDS011;55512;50.102;19.958;2023-08-17T13:37:59;7.10;;;3.00;;
68509;SDS011;55512;50.102;19.958;2023-08-17T13:40:25;8.40;;;2.50;;
68509;SDS011;55512;50.102;19.958;2023-08-17T13:42:50;13.70;;;4.20;;
68509;SDS011;55512;50.102;19.958;2023-08-17T13:45:16;11.90;;;3.40;;
68509;SDS011;55512;50.102;19.958;2023-08-17T13:47:42;6.00;;;2.70;;
68509;SDS011;55512;50.102;19.958;2023-08-17T13:50:07;6.00;;;2.60;;
68509;SDS011;55512;50.102;19.958;2023-08-17T13:52:34;7.20;;;2.60;;
68509;SDS011;55512;50.102;19.958;2023-08-17T13:54:59;5.20;;;2.40;;
68509;SDS011;55512;50.102;19.958;2023-08-17T13:57:25;11.90;;;3.30;;
68509;SDS011;55512;50.102;19.958;2023-08-17T13:59:51;10.80;;;2.80;;
68509;SDS011;55512;50.102;19.958;2023-08-17T14:02:18;9.30;;;3.80;;
68509;SDS011;55512;50.102;19.958;2023-08-17T14:04:43;9.50;;;3.60;;
68509;SDS011;55512;50.102;19.958;2023-08-17T14:07:09;6.90;;;2.80;;
68509;SDS011;55512;50.102;19.958;2023-08-17T14:09:34;8.10;;;2.80;;
68509;SDS011;55512;50.102;19.958;2023-08-17T14:12:00;7.60;;;2.90;;
68509;SDS011;55512;50.102;19.958;2023-08-17T14:14:26;6.40;;;2.70;;
68509;SDS011;55512;50.102;19.958;2023-08-17T14:16:52;6.50;;;2.50;;
68509;SDS011;55512;50.102;19.958;2023-08-17T14:19:17;8.00;;;2.60;;
68509;SDS011;55512;50.102;19.958;2023-08-17T14:21:43;6.30;;;2.70;;
68509;SDS011;55512;50.102;19.958;2023-08-17T14:24:08;4.80;;;2.50;;
68509;SDS011;55512;50.102;19.958;2023-08-17T14:26:34;5.30;;;2.70;;
68509;SDS011;55512;50.102;19.958;2023-08-17T14:29:00;6.70;;;2.80;;
68509;SDS011;55512;50.102;19.958;2023-08-17T14:31:25;6.10;;;2.70;;
68509;SDS011;55512;50.102;19.958;2023-08-17T14:33:51;4.60;;;2.60;;
68509;SDS011;55512;50.102;19.958;2023-08-17T14:36:16;5.00;;;2.70;;
68509;SDS011;55512;50.102;19.958;2023-08-17T14:38:42;4.80;;;2.70;;
68509;SDS011;55512;50.102;19.958;2023-08-17T14:41:07;5.10;;;2.60;;
68509;SDS011;55512;50.102;19.958;2023-08-17T14:43:34;9.90;;;3.10;;
68509;SDS011;55512;50.102;19.958;2023-08-17T14:46:00;6.50;;;2.90;;
68509;SDS011;55512;50.102;19.958;2023-08-17T14:48:26;7.50;;;3.00;;
68509;SDS011;55512;50.102;19.958;2023-08-17T14:50:51;5.10;;;2.70;;
68509;SDS011;55512;50.102;19.958;2023-08-17T14:53:17;5.00;;;2.50;;
68509;SDS011;55512;50.102;19.958;2023-08-17T14:55:42;5.90;;;2.50;;
68509;SDS011;55512;50.102;19.958;2023-08-17T14:58:08;4.40;;;2.60;;
68509;SDS011;55512;50.102;19.958;2023-08-17T15:00:33;5.90;;;2.50;;
68509;SDS011;55512;50.102;19.958;2023-08-17T15:02:59;5.90;;;2.60;;
68509;SDS011;55512;50.102;19.958;2023-08-17T15:05:25;4.90;;;2.50;;
68509;SDS011;55512;50.102;19.958;2023-08-17T15:07:51;5.40;;;2.80;;
68509;SDS011;55512;50.102;19.958;2023-08-17T15:10:17;5.50;;;2.60;;
68509;SDS011;55512;50.102;19.958;2023-08-17T15:12:45;7.30;;;2.80;;
68509;SDS011;55512;50.102;19.958;2023-08-17T15:15:10;6.70;;;2.70;;
68509;SDS011;55512;50.102;19.958;2023-08-17T15:17:36;6.20;;;3.00;;
68509;SDS011;55512;50.102;19.958;2023-08-17T15:20:02;6.80;;;3.20;;
68509;SDS011;55512;50.102;19.958;2023-08-17T15:22:28;6.20;;;3.40;;
68509;SDS011;55512;50.102;19.958;2023-08-17T15:24:53;5.60;;;2.80;;
68509;SDS011;55512;50.102;19.958;2023-08-17T15:27:19;6.60;;;2.90;;
68509;SDS011;55512;50.102;19.958;2023-08-17T15:29:45;6.60;;;3.00;;
68509;SDS011;55512;50.102;19.958;2023-08-17T15:32:11;6.90;;;3.60;;
68509;SDS011;55512;50.102;19.958;2023-08-17T15:34:36;6.90;;;3.50;;
68509;SDS011;55512;50.102;19.958;2023-08-17T15:37:02;5.90;;;3.20;;
68509;SDS011;55512;50.102;19.958;2023-08-17T15:39:28;6.80;;;2.90;;
68509;SDS011;55512;50.102;19.958;2023-08-17T15:41:55;6.20;;;3.20;;
68509;SDS011;55512;50.102;19.958;2023-08-17T15:44:21;6.30;;;3.00;;
68509;SDS011;55512;50.102;19.958;2023-08-17T15:46:47;5.80;;;2.80;;
68509;SDS011;55512;50.102;19.958;2023-08-17T15:49:12;6.20;;;2.70;;
68509;SDS011;55512;50.102;19.958;2023-08-17T15:51:38;4.70;;;2.60;;
68509;SDS011;55512;50.102;19.958;2023-08-17T15:54:05;11.70;;;3.40;;
68509;SDS011;55512;50.102;19.958;2023-08-17T15:56:31;7.10;;;3.00;;
68509;SDS011;55512;50.102;19.958;2023-08-17T15:58:56;6.10;;;3.10;;
68509;SDS011;55512;50.102;19.958;2023-08-17T16:01:22;7.00;;;3.50;;
68509;SDS011;55512;50.102;19.958;2023-08-17T16:03:47;6.60;;;3.10;;
68509;SDS011;55512;50.102;19.958;2023-08-17T16:06:13;7.30;;;3.10;;
68509;SDS011;55512;50.102;19.958;2023-08-17T16:08:41;5.90;;;2.80;;
68509;SDS011;55512;50.102;19.958;2023-08-17T16:11:10;6.20;;;3.00;;
68509;SDS011;55512;50.102;19.958;2023-08-17T16:13:37;7.60;;;2.70;;
68509;SDS011;55512;50.102;19.958;2023-08-17T16:16:03;6.10;;;2.90;;
68509;SDS011;55512;50.102;19.958;2023-08-17T16:18:29;7.20;;;2.80;;
68509;SDS011;55512;50.102;19.958;2023-08-17T16:20:55;6.40;;;3.00;;
68509;SDS011;55512;50.102;19.958;2023-08-17T16:23:20;7.50;;;3.10;;
68509;SDS011;55512;50.102;19.958;2023-08-17T16:25:46;7.70;;;3.30;;
68509;SDS011;55512;50.102;19.958;2023-08-17T16:28:11;7.40;;;3.40;;
68509;SDS011;55512;50.102;19.958;2023-08-17T16:30:37;6.40;;;2.90;;
68509;SDS011;55512;50.102;19.958;2023-08-17T16:33:04;8.30;;;3.40;;
68509;SDS011;55512;50.102;19.958;2023-08-17T16:35:30;7.60;;;3.10;;
68509;SDS011;55512;50.102;19.958;2023-08-17T16:37:55;13.30;;;4.40;;
68509;SDS011;55512;50.102;19.958;2023-08-17T16:40:21;9.60;;;3.30;;
68509;SDS011;55512;50.102;19.958;2023-08-17T16:42:47;9.50;;;3.00;;
68509;SDS011;55512;50.102;19.958;2023-08-17T16:45:15;10.20;;;3.60;;
68509;SDS011;55512;50.102;19.958;2023-08-17T16:47:43;13.60;;;3.50;;
68509;SDS011;55512;50.102;19.958;2023-08-17T16:50:09;10.40;;;3.30;;
68509;SDS011;55512;50.102;19.958;2023-08-17T16:52:34;5.60;;;2.90;;
68509;SDS011;55512;50.102;19.958;2023-08-17T16:55:00;6.40;;;3.20;;
68509;SDS011;55512;50.102;19.958;2023-08-17T16:57:25;7.20;;;3.00;;
68509;SDS011;55512;50.102;19.958;2023-08-17T16:59:51;7.40;;;3.00;;
68509;SDS011;55512;50.102;19.958;2023-08-17T17:02:16;7.30;;;3.60;;
68509;SDS011;55512;50.102;19.958;2023-08-17T17:04:42;7.10;;;2.90;;
68509;SDS011;55512;50.102;19.958;2023-08-17T17:07:08;7.20;;;3.10;;
68509;SDS011;55512;50.102;19.958;2023-08-17T17:09:34;5.90;;;3.40;;
68509;SDS011;55512;50.102;19.958;2023-08-17T17:11:59;6.30;;;3.40;;
68509;SDS011;55512;50.102;19.958;2023-08-17T17:14:25;9.30;;;3.00;;
68509;SDS011;55512;50.102;19.958;2023-08-17T17:16:50;7.00;;;3.50;;
68509;SDS011;55512;50.102;19.958;2023-08-17T17:19:16;6.60;;;3.10;;
68509;SDS011;55512;50.102;19.958;2023-08-17T17:21:43;7.50;;;2.90;;
68509;SDS011;55512;50.102;19.958;2023-08-17T17:24:10;6.80;;;3.70;;
68509;SDS011;55512;50.102;19.958;2023-08-17T17:26:35;7.30;;;4.20;;
68509;SDS011;55512;50.102;19.958;2023-08-17T17:29:03;8.70;;;3.90;;
68509;SDS011;55512;50.102;19.958;2023-08-17T17:31:30;6.80;;;4.30;;
68509;SDS011;55512;50.102;19.958;2023-08-17T17:33:55;9.20;;;3.80;;
68509;SDS011;55512;50.102;19.958;2023-08-17T17:36:21;7.70;;;4.10;;
68509;SDS011;55512;50.102;19.958;2023-08-17T17:38:46;8.00;;;3.70;;
68509;SDS011;55512;50.102;19.958;2023-08-17T17:41:11;8.80;;;4.00;;
68509;SDS011;55512;50.102;19.958;2023-08-17T17:43:39;9.60;;;3.80;;
68509;SDS011;55512;50.102;19.958;2023-08-17T17:46:05;7.80;;;4.30;;
68509;SDS011;55512;50.102;19.958;2023-08-17T17:48:30;9.20;;;4.00;;
68509;SDS011;55512;50.102;19.958;2023-08-17T17:50:57;7.20;;;3.30;;
68509;SDS011;55512;50.102;19.958;2023-08-17T17:53:22;10.00;;;4.00;;
68509;SDS011;55512;50.102;19.958;2023-08-17T17:55:48;7.60;;;4.30;;
68509;SDS011;55512;50.102;19.958;2023-08-17T17:58:13;8.70;;;4.10;;
68509;SDS011;55512;50.102;19.958;2023-08-17T18:00:39;14.40;;;4.90;;
68509;SDS011;55512;50.102;19.958;2023-08-17T18:03:10;11.20;;;5.20;;
68509;SDS011;55512;50.102;19.958;2023-08-17T18:05:47;9.80;;;4.30;;
68509;SDS011;55512;50.102;19.958;2023-08-17T18:08:13;8.50;;;4.30;;
68509;SDS011;55512;50.102;19.958;2023-08-17T18:10:40;8.30;;;4.40;;
68509;SDS011;55512;50.102;19.958;2023-08-17T18:13:06;9.60;;;4.30;;
68509;SDS011;55512;50.102;19.958;2023-08-17T18:15:33;9.10;;;4.80;;
68509;SDS011;55512;50.102;19.958;2023-08-17T18:18:00;7.80;;;4.40;;
68509;SDS011;55512;50.102;19.958;2023-08-17T18:20:26;8.00;;;4.30;;
68509;SDS011;55512;50.102;19.958;2023-08-17T18:22:52;17.20;;;5.90;;
68509;SDS011;55512;50.102;19.958;2023-08-17T18:25:17;14.60;;;5.00;;
68509;SDS011;55512;50.102;19.958;2023-08-17T18:27:43;9.80;;;4.90;;
68509;SDS011;55512;50.102;19.958;2023-08-17T18:30:08;7.20;;;4.00;;
68509;SDS011;55512;50.102;19.958;2023-08-17T18:32:35;10.10;;;4.10;;
68509;SDS011;55512;50.102;19.958;2023-08-17T18:35:04;8.10;;;4.50;;
68509;SDS011;55512;50.102;19.958;2023-08-17T18:37:30;11.90;;;4.30;;
68509;SDS011;55512;50.102;19.958;2023-08-17T18:39:55;9.00;;;4.10;;
68509;SDS011;55512;50.102;19.958;2023-08-17T18:42:21;9.20;;;4.30;;
68509;SDS011;55512;50.102;19.958;2023-08-17T18:44:47;7.70;;;4.20;;
68509;SDS011;55512;50.102;19.958;2023-08-17T18:47:13;8.40;;;4.90;;
68509;SDS011;55512;50.102;19.958;2023-08-17T18:49:39;9.30;;;4.50;;
68509;SDS011;55512;50.102;19.958;2023-08-17T18:52:04;8.10;;;5.10;;
68509;SDS011;55512;50.102;19.958;2023-08-17T18:54:32;8.30;;;3.90;;
68509;SDS011;55512;50.102;19.958;2023-08-17T18:56:58;7.40;;;4.30;;
68509;SDS011;55512;50.102;19.958;2023-08-17T18:59:23;10.90;;;4.90;;
68509;SDS011;55512;50.102;19.958;2023-08-17T19:01:49;9.90;;;4.80;;
68509;SDS011;55512;50.102;19.958;2023-08-17T19:04:14;10.30;;;5.50;;
68509;SDS011;55512;50.102;19.958;2023-08-17T19:06:40;10.90;;;6.00;;
68509;SDS011;55512;50.102;19.958;2023-08-17T19:09:05;9.70;;;5.10;;
68509;SDS011;55512;50.102;19.958;2023-08-17T19:11:30;10.80;;;6.00;;
68509;SDS011;55512;50.102;19.958;2023-08-17T19:13:56;12.00;;;5.60;;
68509;SDS011;55512;50.102;19.958;2023-08-17T19:16:21;12.50;;;5.30;;
68509;SDS011;55512;50.102;19.958;2023-08-17T19:18:47;8.70;;;4.90;;
68509;SDS011;55512;50.102;19.958;2023-08-17T19:21:13;10.50;;;5.50;;
68509;SDS011;55512;50.102;19.958;2023-08-17T19:23:38;10.70;;;5.20;;
68509;SDS011;55512;50.102;19.958;2023-08-17T19:26:04;9.70;;;5.00;;
68509;SDS011;55512;50.102;19.958;2023-08-17T19:28:30;11.20;;;5.60;;
68509;SDS011;55512;50.102;19.958;2023-08-17T19:30:56;11.90;;;6.20;;
68509;SDS011;55512;50.102;19.958;2023-08-17T19:33:21;13.00;;;6.50;;
68509;SDS011;55512;50.102;19.958;2023-08-17T19:35:47;13.80;;;6.20;;
68509;SDS011;55512;50.102;19.958;2023-08-17T19:38:13;11.50;;;5.90;;
68509;SDS011;55512;50.102;19.958;2023-08-17T19:40:39;13.80;;;6.50;;
68509;SDS011;55512;50.102;19.958;2023-08-17T19:43:06;11.50;;;5.70;;
68509;SDS011;55512;50.102;19.958;2023-08-17T19:45:31;9.90;;;5.40;;
68509;SDS011;55512;50.102;19.958;2023-08-17T19:47:56;9.70;;;4.90;;
68509;SDS011;55512;50.102;19.958;2023-08-17T19:50:25;9.70;;;6.00;;
68509;SDS011;55512;50.102;19.958;2023-08-17T19:52:50;10.10;;;5.20;;
68509;SDS011;55512;50.102;19.958;2023-08-17T19:55:16;8.60;;;5.00;;
68509;SDS011;55512;50.102;19.958;2023-08-17T19:57:41;8.70;;;4.90;;
68509;SDS011;55512;50.102;19.958;2023-08-17T20:00:07;10.00;;;4.90;;
68509;SDS011;55512;50.102;19.958;2023-08-17T20:02:37;8.60;;;4.80;;
68509;SDS011;55512;50.102;19.958;2023-08-17T20:05:03;7.50;;;5.00;;
68509;SDS011;55512;50.102;19.958;2023-08-17T20:07:29;7.60;;;5.00;;
68509;SDS011;55512;50.102;19.958;2023-08-17T20:09:54;9.40;;;5.00;;
68509;SDS011;55512;50.102;19.958;2023-08-17T20:12:20;8.60;;;5.00;;
68509;SDS011;55512;50.102;19.958;2023-08-17T20:14:46;9.80;;;5.50;;
68509;SDS011;55512;50.102;19.958;2023-08-17T20:17:11;8.20;;;4.70;;
68509;SDS011;55512;50.102;19.958;2023-08-17T20:19:37;9.90;;;5.30;;
68509;SDS011;55512;50.102;19.958;2023-08-17T20:22:03;10.00;;;5.00;;
68509;SDS011;55512;50.102;19.958;2023-08-17T20:24:30;8.10;;;4.40;;
68509;SDS011;55512;50.102;19.958;2023-08-17T20:26:57;9.70;;;4.80;;
68509;SDS011;55512;50.102;19.958;2023-08-17T20:29:23;9.60;;;4.90;;
68509;SDS011;55512;50.102;19.958;2023-08-17T20:31:48;9.30;;;4.80;;
68509;SDS011;55512;50.102;19.958;2023-08-17T20:34:14;10.30;;;4.80;;
68509;SDS011;55512;50.102;19.958;2023-08-17T20:36:39;10.30;;;5.00;;
68509;SDS011;55512;50.102;19.958;2023-08-17T20:39:13;10.90;;;4.70;;
68509;SDS011;55512;50.102;19.958;2023-08-17T20:41:40;8.20;;;4.80;;
68509;SDS011;55512;50.102;19.958;2023-08-17T20:44:07;9.70;;;5.20;;
68509;SDS011;55512;50.102;19.958;2023-08-17T20:46:32;8.90;;;5.10;;
68509;SDS011;55512;50.102;19.958;2023-08-17T20:48:59;8.80;;;4.90;;
68509;SDS011;55512;50.102;19.958;2023-08-17T20:51:25;8.60;;;4.80;;
68509;SDS011;55512;50.102;19.958;2023-08-17T20:53:52;8.70;;;5.00;;
68509;SDS011;55512;50.102;19.958;2023-08-17T20:56:19;8.60;;;4.60;;
68509;SDS011;55512;50.102;19.958;2023-08-17T20:58:45;10.60;;;5.20;;
68509;SDS011;55512;50.102;19.958;2023-08-17T21:01:11;8.70;;;5.40;;
68509;SDS011;55512;50.102;19.958;2023-08-17T21:03:37;10.80;;;5.30;;
68509;SDS011;55512;50.102;19.958;2023-08-17T21:06:04;10.60;;;5.40;;
68509;SDS011;55512;50.102;19.958;2023-08-17T21:08:30;11.30;;;5.40;;
68509;SDS011;55512;50.102;19.958;2023-08-17T21:10:56;9.10;;;5.20;;
68509;SDS011;55512;50.102;19.958;2023-08-17T21:13:22;8.10;;;5.00;;
68509;SDS011;55512;50.102;19.958;2023-08-17T21:15:47;11.40;;;5.20;;